Terminal Aerodrome Forecast
Issued by NWS

Home | Current Version | Previous Version | Graphics & Text | Print | Product List | Glossary On
Versions: 1 2 3 4 5 6 7 8 9 10 11 12 13 14
000
FTUS43 KICT 251945 AAA
TAFRSL
TAF AMD
KRSL 251945Z 2520/2618 35014KT P6SM VCSH SCT004 BKN007
      TEMPO 2520/2523 3SM RA BKN004
     FM252300 35011KT 6SM RA SCT004 OVC007
     FM260400 35011KT 6SM BR VCSH SCT004 OVC007=

USA.gov is the U.S. government's official web portal to all federal, state and local government web resources and services.